createdAt,value
2019-05-17T00:01:07.467Z,88.87
2019-05-17T00:04:11.479Z,89.36
2019-05-17T00:07:01.900Z,88.64
2019-05-17T00:09:44.547Z,88.69
2019-05-17T00:12:36.727Z,88.65
2019-05-17T00:15:39.821Z,88.92
2019-05-17T00:18:30.182Z,89.21
2019-05-17T00:21:13.407Z,89.36
2019-05-17T00:24:03.794Z,89.40
2019-05-17T00:26:46.767Z,88.78
2019-05-17T00:29:37.613Z,89.18
2019-05-17T00:32:40.446Z,89.31
2019-05-17T00:35:30.849Z,90.03
2019-05-17T00:38:13.667Z,89.34
2019-05-17T00:40:56.618Z,90.15
2019-05-17T00:43:47.030Z,89.77
2019-05-17T00:46:37.425Z,89.91
2019-05-17T00:49:27.794Z,89.87
2019-05-17T00:52:10.746Z,90.00
2019-05-17T00:55:01.105Z,90.65
2019-05-17T00:57:44.622Z,91.02
2019-05-17T01:00:37.567Z,91.07
2019-05-17T01:03:39.290Z,90.84
2019-05-17T01:06:29.936Z,90.84
2019-05-17T01:09:12.675Z,91.03
2019-05-17T01:12:03.066Z,90.83
2019-05-17T01:14:46.605Z,91.14
2019-05-17T01:17:37.204Z,91.15
2019-05-17T01:20:27.803Z,91.49
2019-05-17T01:23:10.335Z,91.41
2019-05-17T01:26:00.751Z,90.98
2019-05-17T01:28:43.542Z,91.16
2019-05-17T01:31:33.980Z,91.06
2019-05-17T01:34:16.793Z,90.99
2019-05-17T01:37:07.652Z,90.26
2019-05-17T01:39:50.162Z,90.79
2019-05-17T01:42:40.510Z,91.29
2019-05-17T01:45:23.563Z,91.21
2019-05-17T01:48:16.293Z,90.53
2019-05-17T01:51:18.433Z,90.53
2019-05-17T01:54:01.274Z,90.56
2019-05-17T01:56:51.594Z,90.94
2019-05-17T01:59:37.108Z,90.84
2019-05-17T02:05:53.741Z,90.63
2019-05-17T02:08:44.097Z,90.63
2019-05-17T02:11:27.274Z,91.26
2019-05-17T02:14:17.673Z,90.78
2019-05-17T02:17:20.850Z,91.41
2019-05-17T02:23:40.425Z,90.95
2019-05-17T02:26:30.812Z,90.88
2019-05-17T02:29:14.105Z,90.98
2019-05-17T02:32:04.611Z,89.79
2019-05-17T02:34:47.499Z,89.97
2019-05-17T02:37:37.902Z,89.60
2019-05-17T02:40:22.703Z,90.14
2019-05-17T02:43:13.427Z,90.10
2019-05-17T02:46:17.212Z,90.58
2019-05-17T02:49:07.604Z,91.06
2019-05-17T02:51:52.714Z,91.51
2019-05-17T02:54:43.668Z,90.74
2019-05-17T02:57:47.665Z,90.98
2019-05-17T03:00:38.047Z,91.29
2019-05-17T03:03:23.699Z,90.83
2019-05-17T03:06:13.796Z,90.51
2019-05-17T03:09:18.569Z,90.57
2019-05-17T03:12:08.939Z,90.75
2019-05-17T03:14:52.930Z,91.01
2019-05-17T03:17:43.967Z,90.66
2019-05-17T03:20:47.805Z,91.08
2019-05-17T03:23:38.174Z,91.67
2019-05-17T03:26:23.010Z,92.28
2019-05-17T03:29:13.871Z,91.58
2019-05-17T03:32:18.302Z,91.43
2019-05-17T03:35:08.761Z,92.14
2019-05-17T03:37:53.262Z,92.73
2019-05-17T03:43:47.980Z,92.80
2019-05-17T03:46:38.345Z,93.03
2019-05-17T03:49:22.445Z,92.73
2019-05-17T03:52:13.687Z,91.69
2019-05-17T03:55:17.994Z,91.90
2019-05-17T03:58:08.334Z,92.24
2019-05-17T04:00:53.419Z,91.84
2019-05-17T04:03:43.502Z,91.17
2019-05-17T04:06:47.753Z,91.80
2019-05-17T04:09:38.106Z,92.49
2019-05-17T04:12:23.088Z,92.14
2019-05-17T04:18:43.654Z,92.10
2019-05-17T04:21:34.516Z,91.89
2019-05-17T04:24:24.869Z,91.82
2019-05-17T04:27:07.376Z,91.88
2019-05-17T04:29:57.767Z,91.09
2019-05-17T04:32:44.102Z,91.42
2019-05-17T04:35:33.111Z,91.57
2019-05-17T04:38:16.468Z,92.15
2019-05-17T04:41:06.848Z,91.79
2019-05-17T04:43:57.228Z,91.91
2019-05-17T04:46:42.908Z,91.07
2019-05-17T04:49:33.096Z,91.53
2019-05-17T04:52:36.599Z,92.06
2019-05-17T04:55:26.994Z,92.29
2019-05-17T04:58:13.419Z,91.28
2019-05-17T05:01:04.143Z,90.74
2019-05-17T05:04:06.698Z,90.63
2019-05-17T05:06:57.073Z,89.81
2019-05-17T05:09:42.949Z,88.82
2019-05-17T05:12:33.642Z,88.57
2019-05-17T05:15:43.399Z,88.76
2019-05-17T05:18:52.296Z,88.46
2019-05-17T05:21:35.044Z,89.37
2019-05-17T05:24:17.962Z,89.21
2019-05-17T05:27:08.396Z,88.24
2019-05-17T05:29:58.868Z,87.99
2019-05-17T05:32:42.688Z,88.85
2019-05-17T05:35:33.349Z,87.92
2019-05-17T05:38:16.355Z,87.61
2019-05-17T05:41:06.757Z,87.75
2019-05-17T05:43:52.463Z,87.02
2019-05-17T05:46:42.412Z,86.69
2019-05-17T05:49:25.273Z,88.02
2019-05-17T05:52:15.651Z,88.43
2019-05-17T05:54:58.625Z,86.92
2019-05-17T05:57:49.035Z,86.87
2019-05-17T06:00:33.020Z,86.17
2019-05-17T06:03:23.596Z,85.93
2019-05-17T06:06:07.056Z,85.51
2019-05-17T06:08:57.447Z,85.75
2019-05-17T06:11:42.798Z,85.56
2019-05-17T06:14:33.184Z,85.51
2019-05-17T06:17:15.764Z,84.80
2019-05-17T06:20:26.820Z,85.23
2019-05-17T06:23:11.936Z,82.96
2019-05-17T06:26:04.161Z,82.27
2019-05-17T06:29:06.147Z,81.07
2019-05-17T06:31:56.517Z,79.81
2019-05-17T06:34:46.909Z,79.58
2019-05-17T06:37:31.787Z,80.55
2019-05-17T06:40:22.300Z,79.23
2019-05-17T06:43:05.869Z,79.81
2019-05-17T06:45:56.231Z,79.83
2019-05-17T06:48:42.174Z,79.34
2019-05-17T06:51:31.899Z,79.54
2019-05-17T06:54:15.195Z,79.25
2019-05-17T06:57:05.546Z,78.38
2019-05-17T06:59:48.897Z,76.77
2019-05-17T07:02:40.234Z,77.37
2019-05-17T07:05:45.654Z,75.93
2019-05-17T07:08:36.032Z,76.01
2019-05-17T07:11:20.921Z,76.82
2019-05-17T07:14:10.804Z,76.33
2019-05-17T07:16:54.199Z,74.63
2019-05-17T07:19:44.599Z,75.71
2019-05-17T07:22:29.491Z,74.86
2019-05-17T07:25:12.373Z,75.16
2019-05-17T07:28:02.770Z,74.72
2019-05-17T07:30:46.331Z,73.95
2019-05-17T07:33:36.693Z,71.60
2019-05-17T07:36:20.292Z,72.64
2019-05-17T07:39:10.965Z,72.91
2019-05-17T07:42:15.248Z,71.26
2019-05-17T07:45:06.143Z,70.86
2019-05-17T07:47:49.589Z,70.69
2019-05-17T07:50:40.162Z,68.95
2019-05-17T07:53:23.402Z,69.70
2019-05-17T07:56:06.518Z,66.66
2019-05-17T07:58:56.936Z,65.68
2019-05-17T08:01:41.862Z,63.26
2019-05-17T08:04:32.302Z,64.81
2019-05-17T08:07:15.056Z,65.62
2019-05-17T08:10:05.541Z,65.96
2019-05-17T08:12:49.796Z,64.93
2019-05-17T08:15:40.305Z,65.94
2019-05-17T08:18:23.836Z,66.49
2019-05-17T08:21:14.251Z,66.99
2019-05-17T08:23:57.017Z,66.95
2019-05-17T08:26:47.381Z,65.61
2019-05-17T08:29:50.656Z,66.37
2019-05-17T08:32:41.020Z,66.27
2019-05-17T08:35:23.723Z,66.25
2019-05-17T08:38:14.084Z,65.85
2019-05-17T08:41:17.497Z,66.43
2019-05-17T08:44:10.109Z,67.16
2019-05-17T08:47:12.419Z,67.74
2019-05-17T08:50:02.801Z,67.87
2019-05-17T08:52:45.604Z,67.24
2019-05-17T08:55:36.920Z,66.43
2019-05-17T08:58:36.257Z,66.31
2019-05-17T09:01:38.239Z,66.61
2019-05-17T09:04:40.483Z,66.56
2019-05-17T09:07:31.000Z,66.48
2019-05-17T09:10:13.841Z,66.59
2019-05-17T09:13:04.252Z,66.76
2019-05-17T09:15:49.342Z,66.64
2019-05-17T09:18:39.579Z,65.93
2019-05-17T09:21:22.649Z,66.11
2019-05-17T09:24:12.975Z,65.91
2019-05-17T09:26:56.007Z,66.54
2019-05-17T09:29:46.328Z,66.25
2019-05-17T09:32:29.565Z,64.72
2019-05-17T09:35:20.848Z,65.79
2019-05-17T09:38:24.460Z,65.43
2019-05-17T09:41:14.845Z,65.04
2019-05-17T09:44:09.563Z,65.38
2019-05-17T09:46:50.459Z,65.35
2019-05-17T09:49:54.279Z,65.68
2019-05-17T09:52:44.652Z,67.19
2019-05-17T09:55:27.292Z,66.94
2019-05-17T09:58:17.690Z,67.30
2019-05-17T10:01:01.566Z,67.94
2019-05-17T10:03:52.177Z,67.97
2019-05-17T10:06:34.889Z,68.31
2019-05-17T10:09:25.273Z,68.81
2019-05-17T10:12:09.512Z,68.03
2019-05-17T10:15:00.600Z,68.25
2019-05-17T10:18:04.737Z,67.50
2019-05-17T10:20:55.137Z,66.70
2019-05-17T10:23:40.472Z,66.44
2019-05-17T10:26:30.547Z,66.56
2019-05-17T10:29:13.368Z,65.72
2019-05-17T10:32:03.721Z,64.77
2019-05-17T10:34:46.488Z,64.06
2019-05-17T10:37:36.813Z,63.10
2019-05-17T10:40:21.714Z,63.56
2019-05-17T10:43:14.275Z,62.63
2019-05-17T10:45:59.400Z,61.61
2019-05-17T10:48:50.028Z,61.78
2019-05-17T10:51:55.270Z,62.13
2019-05-17T10:54:45.696Z,60.90
2019-05-17T10:57:30.321Z,61.52
2019-05-17T11:03:50.373Z,61.43
2019-05-17T11:06:40.196Z,61.40
2019-05-17T11:09:23.313Z,61.86
2019-05-17T11:12:13.675Z,61.59
2019-05-17T11:15:10.885Z,62.27
2019-05-17T11:18:08.651Z,63.41
2019-05-17T11:20:59.032Z,62.98
2019-05-17T11:23:41.905Z,62.71
2019-05-17T11:26:32.310Z,62.47
2019-05-17T11:29:14.933Z,61.59
2019-05-17T11:32:05.307Z,61.36
2019-05-17T11:34:48.240Z,61.54
2019-05-17T11:37:38.641Z,62.85
2019-05-17T11:40:22.408Z,62.95
2019-05-17T11:43:12.765Z,61.69
2019-05-17T11:45:55.520Z,62.19
2019-05-17T11:48:45.890Z,62.63
2019-05-17T11:51:28.905Z,63.29
2019-05-17T11:54:19.277Z,62.23
2019-05-17T11:57:02.668Z,61.66
2019-05-17T11:59:53.028Z,62.40
2019-05-17T12:02:36.446Z,62.22
2019-05-17T12:05:26.820Z,62.46
2019-05-17T12:08:12.543Z,61.35
2019-05-17T12:11:03.084Z,62.95
2019-05-17T12:13:46.557Z,63.18
2019-05-17T12:16:36.946Z,63.85
2019-05-17T12:19:19.527Z,64.14
2019-05-17T12:22:09.937Z,63.95
2019-05-17T12:24:54.223Z,64.52
2019-05-17T12:27:46.344Z,63.92
2019-05-17T12:30:29.679Z,63.32
2019-05-17T12:33:13.114Z,61.95
2019-05-17T12:36:03.472Z,62.41
2019-05-17T12:38:46.543Z,61.50
2019-05-17T12:41:36.904Z,62.20
2019-05-17T12:44:20.332Z,62.16
2019-05-17T12:47:10.698Z,59.22
2019-05-17T12:49:53.274Z,57.12
2019-05-17T12:52:43.581Z,54.89
2019-05-17T12:55:26.409Z,56.43
2019-05-17T12:58:16.781Z,53.94
2019-05-17T13:01:00.152Z,53.40
2019-05-17T13:03:50.517Z,55.54
2019-05-17T13:06:33.855Z,55.78
2019-05-17T13:09:24.257Z,55.50
2019-05-17T13:12:07.159Z,54.24
2019-05-17T13:14:57.524Z,54.42
2019-05-17T13:17:40.255Z,55.04
2019-05-17T13:20:30.630Z,57.42
2019-05-17T13:23:14.158Z,57.00
2019-05-17T13:26:04.745Z,56.99
2019-05-17T13:28:47.831Z,58.30
2019-05-17T13:31:38.229Z,58.81
2019-05-17T13:34:21.885Z,58.10
2019-05-17T13:37:12.586Z,57.32
2019-05-17T13:39:55.837Z,58.28
2019-05-17T13:42:46.274Z,57.14
2019-05-17T13:45:48.790Z,55.42
2019-05-17T13:48:39.386Z,53.78
2019-05-17T13:51:22.969Z,54.25
2019-05-17T13:54:13.322Z,54.39
2019-05-17T13:56:56.496Z,53.40
2019-05-17T13:59:46.855Z,53.47
2019-05-17T14:02:29.733Z,54.18
2019-05-17T14:05:20.065Z,54.49
2019-05-17T14:08:03.355Z,54.09
2019-05-17T14:10:53.711Z,55.16
2019-05-17T14:13:37.020Z,55.87
2019-05-17T14:16:27.458Z,56.31
2019-05-17T14:19:10.638Z,55.94
2019-05-17T14:21:53.445Z,56.35
2019-05-17T14:24:43.893Z,56.42
2019-05-17T14:27:27.396Z,54.46
2019-05-17T14:30:17.837Z,54.64
2019-05-17T14:33:00.443Z,54.81
2019-05-17T14:35:50.798Z,54.94
2019-05-17T14:38:33.706Z,55.90
2019-05-17T14:41:24.357Z,56.25
2019-05-17T14:44:06.995Z,57.10
2019-05-17T14:46:57.323Z,56.90
2019-05-17T14:49:40.566Z,56.40
2019-05-17T14:52:30.884Z,56.03
2019-05-17T14:55:14.360Z,56.09
2019-05-17T14:57:57.181Z,55.89
2019-05-17T15:00:47.610Z,54.88
2019-05-17T15:03:50.695Z,53.89
2019-05-17T15:06:41.042Z,54.48
2019-05-17T15:09:24.301Z,53.89
2019-05-17T15:12:27.130Z,54.35
2019-05-17T15:15:25.633Z,55.00
2019-05-17T15:18:11.263Z,55.13
2019-05-17T15:20:53.826Z,55.02
2019-05-17T15:23:44.153Z,54.69
2019-05-17T15:26:27.247Z,55.33
2019-05-17T15:29:17.604Z,56.05
2019-05-17T15:32:00.267Z,54.89
2019-05-17T15:34:50.596Z,55.86
2019-05-17T15:37:33.802Z,56.50
2019-05-17T15:40:24.195Z,56.70
2019-05-17T15:43:07.691Z,56.78
2019-05-17T15:45:58.071Z,56.16
2019-05-17T15:48:40.621Z,56.52
2019-05-17T15:51:30.965Z,56.66
2019-05-17T15:54:13.672Z,57.52
2019-05-17T15:57:04.071Z,57.45
2019-05-17T15:59:46.672Z,58.10
2019-05-17T16:02:37.064Z,58.21
2019-05-17T16:05:19.901Z,58.25
2019-05-17T16:08:10.296Z,57.95
2019-05-17T16:10:53.623Z,57.73
2019-05-17T16:13:43.975Z,57.51
2019-05-17T16:16:26.617Z,56.83
2019-05-17T16:19:16.991Z,56.21
2019-05-17T16:22:07.366Z,56.17
2019-05-17T16:24:50.469Z,56.45
2019-05-17T16:27:40.839Z,55.79
2019-05-17T16:30:23.460Z,54.57
2019-05-17T16:33:13.841Z,54.96
2019-05-17T16:35:56.372Z,54.73
2019-05-17T16:38:46.751Z,54.18
2019-05-17T16:41:29.987Z,54.17
2019-05-17T16:44:20.352Z,54.45
2019-05-17T16:47:10.727Z,54.68
2019-05-17T16:50:01.111Z,53.58
2019-05-17T16:52:44.255Z,53.82
2019-05-17T16:55:34.625Z,53.28
2019-05-17T16:58:17.312Z,52.73
2019-05-17T17:01:07.694Z,53.15
2019-05-17T17:03:50.546Z,53.23
2019-05-17T17:06:40.938Z,52.71
2019-05-17T17:09:24.127Z,53.38
2019-05-17T17:12:14.503Z,53.60
2019-05-17T17:14:57.016Z,52.89
2019-05-17T17:17:47.351Z,52.77
2019-05-17T17:20:30.798Z,52.34
2019-05-17T17:23:21.453Z,53.15
2019-05-17T17:26:04.271Z,53.20
2019-05-17T17:28:54.620Z,53.22
2019-05-17T17:31:37.487Z,53.41
2019-05-17T17:34:27.842Z,53.78
2019-05-17T17:37:10.489Z,54.60
2019-05-17T17:40:00.880Z,54.77
2019-05-17T17:42:44.173Z,54.82
2019-05-17T17:45:34.541Z,55.17
2019-05-17T17:48:37.025Z,54.99
2019-05-17T17:51:27.440Z,55.12
2019-05-17T17:54:10.974Z,55.52
2019-05-17T17:57:01.341Z,55.89
2019-05-17T17:59:51.745Z,56.47
2019-05-17T18:02:34.512Z,56.15
2019-05-17T18:05:25.336Z,56.25
2019-05-17T18:08:29.732Z,56.94
2019-05-17T18:11:20.115Z,57.75
2019-05-17T18:14:12.835Z,58.38
2019-05-17T18:16:55.407Z,58.31
2019-05-17T18:19:38.566Z,59.06
2019-05-17T18:22:21.573Z,58.77
2019-05-17T18:25:11.964Z,59.82
2019-05-17T18:27:54.676Z,60.23
2019-05-17T18:30:45.081Z,60.54
2019-05-17T18:33:28.033Z,61.34
2019-05-17T18:36:18.458Z,61.18
2019-05-17T18:39:20.923Z,61.77
2019-05-17T18:42:11.296Z,62.30
2019-05-17T18:44:53.991Z,62.79
2019-05-17T18:47:44.413Z,62.63
2019-05-17T18:50:28.227Z,62.51
2019-05-17T18:53:18.737Z,62.93
2019-05-17T18:56:01.772Z,63.55
2019-05-17T18:58:52.146Z,63.29
2019-05-17T19:01:35.755Z,63.36
2019-05-17T19:04:26.172Z,63.45
2019-05-17T19:07:09.296Z,63.79
2019-05-17T19:09:59.713Z,63.50
2019-05-17T19:12:42.460Z,64.22
2019-05-17T19:15:32.895Z,63.75
2019-05-17T19:18:15.626Z,63.62
2019-05-17T19:20:58.423Z,63.89
2019-05-17T19:23:48.881Z,64.27
2019-05-17T19:26:31.585Z,64.51
2019-05-17T19:29:22.035Z,64.89
2019-05-17T19:32:26.217Z,65.29
2019-05-17T19:35:16.633Z,64.71
2019-05-17T19:38:00.049Z,64.84
2019-05-17T19:40:50.443Z,64.73
2019-05-17T19:43:33.935Z,64.75
2019-05-17T19:46:24.335Z,65.39
2019-05-17T19:49:07.618Z,65.02
2019-05-17T19:51:57.913Z,65.63
2019-05-17T19:54:41.252Z,66.18
2019-05-17T19:57:31.641Z,66.10
2019-05-17T20:00:15.875Z,66.16
2019-05-17T20:03:06.243Z,65.97
2019-05-17T20:05:48.953Z,66.17
2019-05-17T20:08:39.314Z,66.36
2019-05-17T20:11:34.386Z,66.19
2019-05-17T20:14:41.776Z,66.64
2019-05-17T20:17:24.718Z,66.95
2019-05-17T20:23:45.007Z,66.93
2019-05-17T20:26:35.411Z,67.85
2019-05-17T20:29:25.773Z,67.92
2019-05-17T20:32:16.197Z,68.12
2019-05-17T20:35:02.572Z,68.22
2019-05-17T20:37:52.987Z,68.07
2019-05-17T20:40:36.380Z,68.29
2019-05-17T20:43:29.387Z,68.76
2019-05-17T20:46:12.065Z,69.17
2019-05-17T20:49:02.403Z,69.42
2019-05-17T20:51:45.832Z,69.66
2019-05-17T20:54:36.315Z,69.51
2019-05-17T20:57:19.258Z,69.20
2019-05-17T21:03:06.260Z,69.39
2019-05-17T21:05:56.668Z,70.32
2019-05-17T21:08:46.122Z,70.30
2019-05-17T21:11:12.426Z,70.34
2019-05-17T21:14:02.739Z,70.54
2019-05-17T21:16:53.102Z,70.94
2019-05-17T21:19:35.907Z,71.36
2019-05-17T21:22:26.248Z,70.96
2019-05-17T21:25:09.894Z,71.36
2019-05-17T21:28:00.277Z,71.21
2019-05-17T21:30:43.812Z,71.16
2019-05-17T21:33:34.188Z,72.00
2019-05-17T21:36:17.485Z,72.21
2019-05-17T21:39:08.767Z,72.05
2019-05-17T21:42:11.749Z,72.62
2019-05-17T21:45:02.125Z,72.32
2019-05-17T21:47:45.521Z,72.50
2019-05-17T21:50:35.894Z,72.60
2019-05-17T21:53:19.426Z,72.66
2019-05-17T21:56:09.764Z,72.48
2019-05-17T21:58:53.045Z,72.60
2019-05-17T22:01:43.475Z,72.82
2019-05-17T22:04:27.116Z,73.70
2019-05-17T22:07:17.502Z,73.24
2019-05-17T22:10:07.647Z,73.40
2019-05-17T22:12:58.046Z,73.68
2019-05-17T22:15:41.115Z,74.25
2019-05-17T22:18:31.477Z,74.12
2019-05-17T22:21:14.585Z,74.43
2019-05-17T22:24:05.013Z,74.69
2019-05-17T22:26:48.056Z,74.82
2019-05-17T22:29:38.411Z,75.07
2019-05-17T22:32:41.732Z,75.50
2019-05-17T22:35:32.116Z,75.89
2019-05-17T22:38:14.747Z,75.96
2019-05-17T22:41:05.242Z,76.47
2019-05-17T22:43:48.769Z,76.61
2019-05-17T22:46:39.129Z,76.84
2019-05-17T22:49:22.518Z,77.21
2019-05-17T22:52:12.878Z,77.19
2019-05-17T22:54:56.297Z,77.55
2019-05-17T22:57:46.646Z,77.95
2019-05-17T23:00:49.936Z,78.37
2019-05-17T23:03:40.259Z,78.62
2019-05-17T23:06:23.191Z,78.88
2019-05-17T23:09:13.524Z,79.04
2019-05-17T23:11:56.459Z,79.40
2019-05-17T23:14:46.800Z,79.80
2019-05-17T23:17:29.951Z,79.99
2019-05-17T23:20:20.308Z,79.95
2019-05-17T23:23:03.702Z,80.26
2019-05-17T23:25:54.042Z,80.47
2019-05-17T23:28:36.814Z,80.46
2019-05-17T23:31:27.272Z,81.08
2019-05-17T23:34:09.849Z,81.12
2019-05-17T23:37:00.250Z,81.30
2019-05-17T23:39:43.644Z,81.46
2019-05-17T23:42:34.030Z,81.79
2019-05-17T23:45:17.305Z,81.71
2019-05-17T23:48:07.687Z,82.42
2019-05-17T23:50:50.823Z,82.78
2019-05-17T23:53:41.216Z,83.17
2019-05-17T23:56:24.501Z,83.34
2019-05-17T23:59:14.879Z,83.72
